createdAt,value
2023-05-23T00:00:11.531Z,100457.75
2023-05-23T00:03:05.860Z,100460.78
2023-05-23T00:05:34.693Z,100446.38
2023-05-23T00:08:04.988Z,100451.91
2023-05-23T00:10:33.715Z,100458.25
2023-05-23T00:13:05.584Z,100459.47
2023-05-23T00:15:34.386Z,100458.75
2023-05-23T00:18:03.443Z,100463.41
2023-05-23T00:20:32.270Z,100455.84
2023-05-23T00:23:01.267Z,100458.00
2023-05-23T00:25:34.393Z,100448.63
2023-05-23T00:28:06.295Z,100454.03
2023-05-23T00:30:35.786Z,100451.25
2023-05-23T00:33:05.196Z,100454.03
2023-05-23T00:35:33.978Z,100453.03
2023-05-23T00:38:03.436Z,100447.03
2023-05-23T00:40:32.192Z,100440.22
2023-05-23T00:43:01.927Z,100445.63
2023-05-23T00:45:32.152Z,100437.47
2023-05-23T00:48:02.678Z,100443.19
2023-05-23T00:50:32.074Z,100442.84
2023-05-23T00:53:02.829Z,100432.88
2023-05-23T00:55:32.475Z,100436.38
2023-05-23T00:58:02.025Z,100443.44
2023-05-23T01:00:34.235Z,100438.03
2023-05-23T01:03:04.075Z,100440.06
2023-05-23T01:05:32.854Z,100440.28
2023-05-23T01:08:03.405Z,100445.06
2023-05-23T01:10:33.257Z,100446.25
2023-05-23T01:13:19.205Z,100439.41
2023-05-23T01:15:59.821Z,100448.41
2023-05-23T01:18:41.484Z,100449.56
2023-05-23T01:21:18.429Z,100447.41
2023-05-23T01:24:36.292Z,100449.19
2023-05-23T01:27:24.723Z,100445.34
2023-05-23T01:29:59.749Z,100453.34
2023-05-23T01:32:30.266Z,100442.09
2023-05-23T01:35:02.042Z,100444.09
2023-05-23T01:37:31.294Z,100432.94
2023-05-23T01:40:01.230Z,100434.75
2023-05-23T01:42:30.707Z,100433.78
2023-05-23T01:45:01.207Z,100423.81
2023-05-23T01:47:30.545Z,100434.38
2023-05-23T01:50:02.621Z,100427.63
2023-05-23T01:52:31.672Z,100425.34
2023-05-23T01:55:02.278Z,100421.34
2023-05-23T01:57:31.989Z,100415.34
2023-05-23T02:00:02.625Z,100418.97
2023-05-23T02:02:42.739Z,100412.09
2023-05-23T02:05:12.691Z,100412.22
2023-05-23T02:07:41.517Z,100413.19
2023-05-23T02:10:11.937Z,100414.84
2023-05-23T02:12:40.849Z,100413.41
2023-05-23T02:15:12.300Z,100414.22
2023-05-23T02:17:41.513Z,100411.91
2023-05-23T02:20:11.771Z,100409.41
2023-05-23T02:22:40.638Z,100410.38
2023-05-23T02:25:11.341Z,100402.34
2023-05-23T02:27:41.482Z,100396.09
2023-05-23T02:30:13.376Z,100396.97
2023-05-23T02:32:42.267Z,100398.13
2023-05-23T02:35:11.472Z,100394.44
2023-05-23T02:37:40.286Z,100394.66
2023-05-23T02:40:10.811Z,100393.56
2023-05-23T02:42:39.647Z,100396.31
2023-05-23T02:45:12.040Z,100398.13
2023-05-23T02:47:41.002Z,100393.56
2023-05-23T02:50:12.688Z,100390.13
2023-05-23T02:52:42.409Z,100396.31
2023-05-23T02:55:11.520Z,100395.38
2023-05-23T02:57:44.680Z,100393.56
2023-05-23T03:00:16.247Z,100396.22
2023-05-23T03:02:49.856Z,100394.09
2023-05-23T03:05:19.924Z,100392.81
2023-05-23T03:07:48.798Z,100397.88
2023-05-23T03:10:18.126Z,100396.88
2023-05-23T03:12:48.722Z,100392.34
2023-05-23T03:15:21.071Z,100394.88
2023-05-23T03:17:50.186Z,100392.13
2023-05-23T03:20:19.264Z,100389.25
2023-05-23T03:22:48.299Z,100393.34
2023-05-23T03:25:17.690Z,100393.94
2023-05-23T03:27:46.505Z,100396.59
2023-05-23T03:30:15.874Z,100402.50
2023-05-23T03:32:46.689Z,100397.94
2023-05-23T03:35:15.760Z,100394.31
2023-05-23T03:37:44.517Z,100398.22
2023-05-23T03:40:13.761Z,100400.88
2023-05-23T03:42:43.102Z,100399.94
2023-05-23T03:45:12.862Z,100396.84
2023-05-23T03:47:43.008Z,100398.91
2023-05-23T03:50:14.001Z,100397.72
2023-05-23T03:52:43.499Z,100400.50
2023-05-23T03:55:12.776Z,100389.69
2023-05-23T03:57:41.812Z,100391.84
2023-05-23T04:00:12.836Z,100394.75
2023-05-23T04:02:48.596Z,100395.81
2023-05-23T04:05:21.741Z,100388.97
2023-05-23T04:07:52.730Z,100380.06
2023-05-23T04:10:21.991Z,100382.00
2023-05-23T04:12:51.744Z,100378.97
2023-05-23T04:15:21.702Z,100373.06
2023-05-23T04:18:10.433Z,100379.31
2023-05-23T04:20:41.973Z,100376.88
2023-05-23T04:23:11.200Z,100372.75
2023-05-23T04:25:43.253Z,100385.50
2023-05-23T04:28:17.894Z,100381.84
2023-05-23T04:30:49.526Z,100385.69
2023-05-23T04:33:21.797Z,100379.38
2023-05-23T04:35:52.299Z,100382.78
2023-05-23T04:38:22.191Z,100386.34
2023-05-23T04:40:53.293Z,100379.44
2023-05-23T04:43:42.688Z,100388.03
2023-05-23T04:46:31.038Z,100372.78
2023-05-23T04:49:14.511Z,100376.63
2023-05-23T04:51:45.863Z,100375.69
2023-05-23T04:54:21.824Z,100383.44
2023-05-23T04:56:51.338Z,100373.84
2023-05-23T04:59:22.179Z,100373.72
2023-05-23T05:01:51.354Z,100368.44
2023-05-23T05:04:23.390Z,100373.50
2023-05-23T05:06:54.469Z,100368.06
2023-05-23T05:09:23.731Z,100367.13
2023-05-23T05:11:53.451Z,100362.34
2023-05-23T05:14:23.048Z,100366.25
2023-05-23T05:16:52.103Z,100363.19
2023-05-23T05:19:23.263Z,100358.88
2023-05-23T05:21:53.762Z,100363.69
2023-05-23T05:24:22.638Z,100353.66
2023-05-23T05:26:51.868Z,100362.25
2023-05-23T05:29:20.693Z,100352.34
2023-05-23T05:31:49.702Z,100359.34
2023-05-23T05:34:18.750Z,100357.91
2023-05-23T05:36:48.361Z,100359.59
2023-05-23T05:39:20.793Z,100360.97
2023-05-23T05:41:50.779Z,100355.63
2023-05-23T05:44:19.698Z,100362.06
2023-05-23T05:46:49.502Z,100357.13
2023-05-23T05:49:18.308Z,100359.16
2023-05-23T05:51:48.332Z,100358.19
2023-05-23T05:54:19.110Z,100359.38
2023-05-23T05:56:49.835Z,100366.56
2023-05-23T05:59:18.652Z,100362.22
2023-05-23T06:01:47.756Z,100360.53
2023-05-23T06:04:16.624Z,100363.22
2023-05-23T06:06:46.103Z,100361.03
2023-05-23T06:09:14.904Z,100358.13
2023-05-23T06:11:45.139Z,100357.44
2023-05-23T06:14:15.232Z,100358.88
2023-05-23T06:16:48.309Z,100360.16
2023-05-23T06:19:17.223Z,100353.16
2023-05-23T06:21:47.344Z,100352.88
2023-05-23T06:24:17.198Z,100345.34
2023-05-23T06:26:46.296Z,100346.88
2023-05-23T06:29:17.477Z,100338.66
2023-05-23T06:31:46.690Z,100337.47
2023-05-23T06:34:15.530Z,100335.53
2023-05-23T06:36:46.951Z,100335.63
2023-05-23T06:39:15.968Z,100328.53
2023-05-23T06:41:45.815Z,100323.47
2023-05-23T06:44:16.607Z,100331.50
2023-05-23T06:46:47.706Z,100326.03
2023-05-23T06:49:16.991Z,100325.84
2023-05-23T06:51:47.551Z,100325.28
2023-05-23T06:54:17.038Z,100313.41
2023-05-23T06:56:46.686Z,100308.66
2023-05-23T06:59:27.028Z,100311.66
2023-05-23T07:02:01.327Z,100320.78
2023-05-23T07:04:30.980Z,100310.81
2023-05-23T07:07:05.268Z,100308.97
2023-05-23T07:09:34.456Z,100303.59
2023-05-23T07:12:14.775Z,100303.75
2023-05-23T07:14:47.236Z,100307.72
2023-05-23T07:17:17.264Z,100301.34
2023-05-23T07:19:47.708Z,100302.28
2023-05-23T07:22:16.948Z,100295.94
2023-05-23T07:24:46.389Z,100292.53
2023-05-23T07:27:16.836Z,100288.31
2023-05-23T07:29:47.037Z,100295.75
2023-05-23T07:32:16.257Z,100290.56
2023-05-23T07:34:45.848Z,100288.19
2023-05-23T07:37:14.894Z,100287.81
2023-05-23T07:39:46.282Z,100278.69
2023-05-23T07:42:15.437Z,100275.50
2023-05-23T07:44:44.276Z,100277.22
2023-05-23T07:47:14.869Z,100266.56
2023-05-23T07:49:44.650Z,100267.91
2023-05-23T07:52:13.735Z,100275.50
2023-05-23T07:54:42.795Z,100272.59
2023-05-23T07:57:13.254Z,100277.16
2023-05-23T07:59:42.172Z,100265.16
2023-05-23T08:02:11.876Z,100266.41
2023-05-23T08:04:45.017Z,100275.88
2023-05-23T08:07:15.820Z,100274.63
2023-05-23T08:09:49.440Z,100271.84
2023-05-23T08:12:21.390Z,100270.78
2023-05-23T08:14:54.070Z,100272.41
2023-05-23T08:17:28.517Z,100266.72
2023-05-23T08:20:00.638Z,100268.81
2023-05-23T08:22:30.829Z,100266.38
2023-05-23T08:25:00.141Z,100260.56
2023-05-23T08:27:32.033Z,100253.63
2023-05-23T08:30:09.896Z,100254.38
2023-05-23T08:32:40.144Z,100256.47
2023-05-23T08:35:10.879Z,100250.56
2023-05-23T08:37:43.145Z,100246.75
2023-05-23T08:40:19.676Z,100250.91
2023-05-23T08:42:53.738Z,100240.00
2023-05-23T08:45:23.797Z,100244.38
2023-05-23T08:47:55.786Z,100236.00
2023-05-23T08:50:31.309Z,100242.22
2023-05-23T08:53:01.305Z,100237.75
2023-05-23T08:55:32.388Z,100232.19
2023-05-23T08:58:04.618Z,100223.72
2023-05-23T09:00:50.227Z,100229.94
2023-05-23T09:03:20.126Z,100235.66
2023-05-23T09:06:12.987Z,100231.19
2023-05-23T09:08:46.126Z,100238.38
2023-05-23T09:11:16.649Z,100232.00
2023-05-23T09:13:48.335Z,100227.66
2023-05-23T09:16:21.262Z,100222.09
2023-05-23T09:18:54.093Z,100220.88
2023-05-23T09:21:26.318Z,100215.84
2023-05-23T09:24:07.002Z,100214.69
2023-05-23T09:26:36.363Z,100211.72
2023-05-23T09:29:07.959Z,100205.16
2023-05-23T09:31:37.496Z,100206.38
2023-05-23T09:34:07.012Z,100217.56
2023-05-23T09:36:37.533Z,100218.81
2023-05-23T09:39:08.208Z,100213.81
2023-05-23T09:41:37.190Z,100217.56
2023-05-23T09:44:10.072Z,100211.53
2023-05-23T09:46:39.522Z,100212.78
2023-05-23T09:49:19.080Z,100218.13
2023-05-23T09:52:00.949Z,100207.84
2023-05-23T09:54:30.105Z,100206.44
2023-05-23T09:57:04.282Z,100212.91
2023-05-23T09:59:40.169Z,100212.16
2023-05-23T10:02:13.578Z,100201.38
2023-05-23T10:04:44.631Z,100211.28
2023-05-23T10:07:22.429Z,100212.69
2023-05-23T10:09:59.114Z,100213.13
2023-05-23T10:12:51.368Z,100204.22
2023-05-23T10:15:24.025Z,100208.78
2023-05-23T10:18:09.141Z,100204.97
2023-05-23T10:20:41.843Z,100197.50
2023-05-23T10:23:13.814Z,100193.06
2023-05-23T10:25:45.677Z,100190.84
2023-05-23T10:28:16.564Z,100185.75
2023-05-23T10:30:46.995Z,100198.66
2023-05-23T10:33:17.942Z,100196.66
2023-05-23T10:35:58.632Z,100192.59
2023-05-23T10:38:39.871Z,100194.47
2023-05-23T10:41:19.865Z,100191.88
2023-05-23T10:43:58.431Z,100188.19
2023-05-23T10:46:55.149Z,100187.00
2023-05-23T10:49:39.048Z,100189.81
2023-05-23T10:52:08.954Z,100199.88
2023-05-23T10:54:45.212Z,100196.38
2023-05-23T10:57:19.191Z,100181.75
2023-05-23T10:59:51.704Z,100176.03
2023-05-23T11:02:27.590Z,100171.28
2023-05-23T11:05:23.512Z,100187.94
2023-05-23T11:08:13.954Z,100167.22
2023-05-23T11:11:00.755Z,100172.19
2023-05-23T11:14:00.473Z,100165.78
2023-05-23T11:16:31.928Z,100161.06
2023-05-23T11:19:26.376Z,100162.66
2023-05-23T11:21:59.646Z,100155.97
2023-05-23T11:24:52.354Z,100155.75
2023-05-23T11:27:31.989Z,100157.91
2023-05-23T11:30:05.381Z,100154.34
2023-05-23T11:32:35.574Z,100139.25
2023-05-23T11:35:07.131Z,100144.38
2023-05-23T11:37:37.127Z,100149.53
2023-05-23T11:40:28.965Z,100151.22
2023-05-23T11:42:59.884Z,100148.34
2023-05-23T11:45:32.332Z,100143.84
2023-05-23T11:48:07.462Z,100144.59
2023-05-23T11:50:45.296Z,100140.84
2023-05-23T11:53:17.129Z,100134.22
2023-05-23T11:55:55.306Z,100139.31
2023-05-23T11:58:29.605Z,100128.88
2023-05-23T12:01:02.863Z,100125.34
2023-05-23T12:03:32.088Z,100117.56
2023-05-23T12:06:02.006Z,100122.06
2023-05-23T12:08:30.782Z,100123.59
2023-05-23T12:11:02.016Z,100117.94
2023-05-23T12:13:32.286Z,100120.63
2023-05-23T12:16:04.646Z,100121.84
2023-05-23T12:18:35.945Z,100127.03
2023-05-23T12:21:08.348Z,100122.97
2023-05-23T12:23:38.135Z,100107.22
2023-05-23T12:26:10.227Z,100120.22
2023-05-23T12:28:42.990Z,100118.59
2023-05-23T12:31:13.592Z,100116.34
2023-05-23T12:33:44.091Z,100114.72
2023-05-23T12:36:13.981Z,100106.47
2023-05-23T12:38:46.341Z,100104.56
2023-05-23T12:41:20.520Z,100102.69
2023-05-23T12:43:55.311Z,100108.88
2023-05-23T12:46:26.265Z,100105.97
2023-05-23T12:48:56.338Z,100099.81
2023-05-23T12:51:25.602Z,100092.34
2023-05-23T12:53:55.756Z,100101.06
2023-05-23T12:56:25.101Z,100097.78
2023-05-23T12:58:55.203Z,100092.38
2023-05-23T13:01:24.634Z,100097.31
2023-05-23T13:03:53.675Z,100085.31
2023-05-23T13:06:22.935Z,100092.41
2023-05-23T13:08:52.710Z,100090.34
2023-05-23T13:11:22.510Z,100080.94
2023-05-23T13:13:52.896Z,100072.84
2023-05-23T13:16:23.771Z,100072.00
2023-05-23T13:18:53.916Z,100074.13
2023-05-23T13:21:23.566Z,100075.13
2023-05-23T13:23:52.329Z,100078.22
2023-05-23T13:26:21.859Z,100074.16
2023-05-23T13:28:50.647Z,100075.44
2023-05-23T13:31:19.807Z,100070.09
2023-05-23T13:33:49.983Z,100066.94
2023-05-23T13:36:19.193Z,100066.31
2023-05-23T13:38:47.962Z,100065.72
2023-05-23T13:41:17.028Z,100068.59
2023-05-23T13:43:45.837Z,100069.72
2023-05-23T13:46:15.014Z,100069.88
2023-05-23T13:48:43.998Z,100072.19
2023-05-23T13:51:14.429Z,100059.34
2023-05-23T13:53:43.285Z,100058.13
2023-05-23T13:56:12.532Z,100065.16
2023-05-23T13:58:42.955Z,100057.47
2023-05-23T14:01:12.056Z,100055.81
2023-05-23T14:03:41.194Z,100056.03
2023-05-23T14:06:10.363Z,100054.78
2023-05-23T14:08:40.701Z,100057.91
2023-05-23T14:11:09.846Z,100053.97
2023-05-23T14:13:38.641Z,100047.34
2023-05-23T14:16:08.206Z,100050.84
2023-05-23T14:18:37.049Z,100045.66
2023-05-23T14:21:06.252Z,100048.56
2023-05-23T14:23:34.995Z,100037.59
2023-05-23T14:26:06.644Z,100040.28
2023-05-23T14:28:35.596Z,100035.72
2023-05-23T14:31:04.708Z,100033.63
2023-05-23T14:33:33.614Z,100035.28
2023-05-23T14:36:03.044Z,100043.34
2023-05-23T14:38:31.831Z,100036.91
2023-05-23T14:41:00.876Z,100033.78
2023-05-23T14:43:31.353Z,100039.38
2023-05-23T14:46:01.326Z,100035.66
2023-05-23T14:48:30.071Z,100033.59
2023-05-23T14:51:01.703Z,100027.41
2023-05-23T14:53:30.712Z,100030.69
2023-05-23T14:55:59.718Z,100029.47
2023-05-23T14:58:29.898Z,100026.53
2023-05-23T15:00:59.112Z,100027.78
2023-05-23T15:03:28.413Z,100037.09
2023-05-23T15:05:57.538Z,100024.28
2023-05-23T15:08:26.336Z,100025.75
2023-05-23T15:10:55.719Z,100027.19
2023-05-23T15:13:24.627Z,100026.97
2023-05-23T15:15:55.184Z,100019.09
2023-05-23T15:18:38.846Z,100029.03
2023-05-23T15:21:10.820Z,100020.97
2023-05-23T15:23:39.748Z,100013.75
2023-05-23T15:26:08.836Z,100005.25
2023-05-23T15:28:37.637Z,100006.91
2023-05-23T15:31:08.101Z,100008.16
2023-05-23T15:33:36.835Z,100013.53
2023-05-23T15:36:09.314Z,100009.78
2023-05-23T15:38:38.028Z,100014.16
2023-05-23T15:41:07.461Z,100018.28
2023-05-23T15:43:36.570Z,100016.88
2023-05-23T15:46:07.719Z,100006.28
2023-05-23T15:48:36.563Z,100003.19
2023-05-23T15:51:06.103Z,100003.78
2023-05-23T15:53:43.358Z,100006.28
2023-05-23T15:56:17.592Z,100003.63
2023-05-23T15:58:46.478Z,100000.91
2023-05-23T16:01:16.980Z,100001.34
2023-05-23T16:03:45.826Z,99999.50
2023-05-23T16:06:15.178Z,99997.22
2023-05-23T16:08:44.080Z,99992.91
2023-05-23T16:11:13.312Z,99991.25
2023-05-23T16:13:42.154Z,99990.22
2023-05-23T16:16:11.347Z,99998.31
2023-05-23T16:18:41.547Z,99999.53
2023-05-23T16:21:11.031Z,99996.63
2023-05-23T16:23:39.882Z,99995.22
2023-05-23T16:26:08.898Z,99991.91
2023-05-23T16:28:37.619Z,99988.16
2023-05-23T16:31:06.814Z,99988.81
2023-05-23T16:33:36.183Z,99988.81
2023-05-23T16:36:07.317Z,99992.31
2023-05-23T16:38:36.218Z,99991.28
2023-05-23T16:41:05.516Z,99992.72
2023-05-23T16:43:35.163Z,99990.44
2023-05-23T16:46:04.660Z,99986.91
2023-05-23T16:48:33.605Z,99990.41
2023-05-23T16:51:02.739Z,99996.41
2023-05-23T16:53:33.014Z,99992.66
2023-05-23T16:56:02.018Z,99992.69
2023-05-23T16:58:31.092Z,99999.69
2023-05-23T17:01:00.129Z,100000.09
2023-05-23T17:03:29.491Z,99997.19
2023-05-23T17:05:58.646Z,99992.66
2023-05-23T17:08:49.051Z,99995.13
2023-05-23T17:11:18.297Z,99991.59
2023-05-23T17:13:47.154Z,99998.19
2023-05-23T17:16:20.353Z,100001.09
2023-05-23T17:18:49.621Z,100000.06
2023-05-23T17:21:18.750Z,100000.44
2023-05-23T17:23:48.985Z,100001.66
2023-05-23T17:26:19.621Z,100002.28
2023-05-23T17:28:48.776Z,100003.06
2023-05-23T17:31:18.347Z,99995.81
2023-05-23T17:33:47.465Z,100002.59
2023-05-23T17:36:16.597Z,100004.06
2023-05-23T17:38:45.641Z,99998.44
2023-05-23T17:41:17.624Z,99994.03
2023-05-23T17:43:46.550Z,99992.97
2023-05-23T17:46:15.654Z,100000.16
2023-05-23T17:48:46.963Z,99997.25
2023-05-23T17:51:17.598Z,100003.97
2023-05-23T17:53:46.349Z,100003.88
2023-05-23T17:56:16.751Z,100007.28
2023-05-23T17:58:45.610Z,100010.50
2023-05-23T18:01:14.758Z,100002.19
2023-05-23T18:03:43.809Z,100007.03
2023-05-23T18:06:13.168Z,100008.38
2023-05-23T18:08:42.633Z,100006.41
2023-05-23T18:11:11.832Z,100001.97
2023-05-23T18:13:41.964Z,100006.69
2023-05-23T18:16:11.007Z,100001.69
2023-05-23T18:18:39.806Z,100004.19
2023-05-23T18:21:10.045Z,100004.56
2023-05-23T18:23:38.899Z,100007.00
2023-05-23T18:26:08.042Z,100009.66
2023-05-23T18:28:36.863Z,100008.78
2023-05-23T18:31:07.361Z,100008.88
2023-05-23T18:33:36.261Z,100011.75
2023-05-23T18:36:06.883Z,100018.06
2023-05-23T18:38:35.899Z,100014.94
2023-05-23T18:41:05.242Z,100023.53
2023-05-23T18:43:33.970Z,100030.66
2023-05-23T18:46:03.210Z,100022.53
2023-05-23T18:48:35.620Z,100026.69
2023-05-23T18:51:05.581Z,100028.88
2023-05-23T18:53:34.353Z,100036.66
2023-05-23T18:56:03.414Z,100039.31
2023-05-23T18:58:32.574Z,100034.97
2023-05-23T19:01:03.907Z,100040.03
2023-05-23T19:03:34.997Z,100044.28
2023-05-23T19:06:04.847Z,100039.31
2023-05-23T19:08:34.584Z,100045.38
2023-05-23T19:11:04.869Z,100036.25
2023-05-23T19:13:33.579Z,100042.13
2023-05-23T19:16:02.752Z,100035.50
2023-05-23T19:18:32.916Z,100046.56
2023-05-23T19:21:02.238Z,100044.59
2023-05-23T19:23:31.015Z,100045.16
2023-05-23T19:26:00.131Z,100054.84
2023-05-23T19:28:31.284Z,100045.72
2023-05-23T19:31:00.294Z,100049.25
2023-05-23T19:33:29.102Z,100051.84
2023-05-23T19:35:59.522Z,100055.19
2023-05-23T19:38:28.342Z,100053.63
2023-05-23T19:40:57.975Z,100053.31
2023-05-23T19:43:26.882Z,100051.19
2023-05-23T19:45:55.928Z,100057.22
2023-05-23T19:48:28.749Z,100052.59
2023-05-23T19:50:59.133Z,100060.31
2023-05-23T19:53:27.881Z,100054.50
2023-05-23T19:55:57.681Z,100063.84
2023-05-23T19:58:32.596Z,100056.38
2023-05-23T20:01:01.762Z,100053.38
2023-05-23T20:03:30.929Z,100062.09
2023-05-23T20:06:01.620Z,100059.59
2023-05-23T20:08:30.489Z,100067.13
2023-05-23T20:11:00.511Z,100061.94
2023-05-23T20:13:29.306Z,100066.44
2023-05-23T20:15:58.665Z,100060.44
2023-05-23T20:18:27.796Z,100059.44
2023-05-23T20:20:56.826Z,100062.13
2023-05-23T20:23:28.579Z,100063.94
2023-05-23T20:25:57.818Z,100067.81
2023-05-23T20:28:27.460Z,100075.81
2023-05-23T20:30:56.753Z,100078.50
2023-05-23T20:33:25.595Z,100065.31
2023-05-23T20:35:55.026Z,100068.16
2023-05-23T20:38:24.840Z,100075.34
2023-05-23T20:40:55.473Z,100073.19
2023-05-23T20:43:24.341Z,100073.34
2023-05-23T20:45:53.855Z,100076.03
2023-05-23T20:48:22.686Z,100075.72
2023-05-23T20:50:52.376Z,100075.53
2023-05-23T20:53:24.239Z,100079.41
2023-05-23T20:55:54.759Z,100076.22
2023-05-23T20:58:23.583Z,100068.22
2023-05-23T21:00:52.712Z,100077.91
2023-05-23T21:03:21.868Z,100064.22
2023-05-23T21:05:51.097Z,100067.72
2023-05-23T21:08:19.973Z,100069.38
2023-05-23T21:10:51.721Z,100072.22
2023-05-23T21:13:24.493Z,100080.22
2023-05-23T21:15:53.579Z,100069.88
2023-05-23T21:18:22.924Z,100072.38
2023-05-23T21:20:52.046Z,100074.56
2023-05-23T21:23:20.863Z,100070.91
2023-05-23T21:25:50.020Z,100067.75
2023-05-23T21:28:18.861Z,100069.09
2023-05-23T21:30:50.027Z,100068.44
2023-05-23T21:33:18.876Z,100071.44
2023-05-23T21:35:48.199Z,100065.47
2023-05-23T21:38:16.961Z,100069.13
2023-05-23T21:40:46.222Z,100072.63
2023-05-23T21:43:15.048Z,100075.47
2023-05-23T21:45:44.073Z,100070.31
2023-05-23T21:48:14.281Z,100074.31
2023-05-23T21:50:43.660Z,100075.16
2023-05-23T21:53:12.596Z,100076.31
2023-05-23T21:55:41.610Z,100080.00
2023-05-23T21:58:10.396Z,100076.50
2023-05-23T22:00:40.252Z,100085.50
2023-05-23T22:03:09.182Z,100085.34
2023-05-23T22:05:39.786Z,100078.34
2023-05-23T22:08:08.793Z,100080.84
2023-05-23T22:10:37.876Z,100080.00
2023-05-23T22:13:07.418Z,100084.66
2023-05-23T22:15:36.932Z,100086.69
2023-05-23T22:18:06.649Z,100072.69
2023-05-23T22:20:38.862Z,100069.19
2023-05-23T22:23:09.999Z,100072.84
2023-05-23T22:25:39.056Z,100075.69
2023-05-23T22:28:07.780Z,100069.53
2023-05-23T22:30:36.868Z,100073.19
2023-05-23T22:33:12.939Z,100072.03
2023-05-23T22:35:43.063Z,100071.88
2023-05-23T22:38:13.198Z,100078.88
2023-05-23T22:40:42.463Z,100065.72
2023-05-23T22:43:11.378Z,100080.03
2023-05-23T22:45:42.603Z,100082.72
2023-05-23T22:48:12.214Z,100080.03
2023-05-23T22:50:41.696Z,100088.03
2023-05-23T22:53:12.863Z,100083.69
2023-05-23T22:55:42.190Z,100086.03
2023-05-23T22:58:11.030Z,100078.41
2023-05-23T23:00:40.185Z,100077.53
2023-05-23T23:03:09.126Z,100081.06
2023-05-23T23:05:38.237Z,100078.56
2023-05-23T23:08:07.271Z,100083.41
2023-05-23T23:10:37.674Z,100076.41
2023-05-23T23:13:06.479Z,100076.41
2023-05-23T23:15:36.801Z,100073.91
2023-05-23T23:18:06.781Z,100074.22
2023-05-23T23:20:35.935Z,100069.91
2023-05-23T23:23:04.663Z,100067.25
2023-05-23T23:25:33.675Z,100070.25
2023-05-23T23:28:03.795Z,100061.06
2023-05-23T23:30:32.795Z,100069.75
2023-05-23T23:33:01.692Z,100060.06
2023-05-23T23:35:30.866Z,100057.91
2023-05-23T23:37:59.609Z,100064.59
2023-05-23T23:40:28.739Z,100059.59
2023-05-23T23:42:57.477Z,100064.91
2023-05-23T23:45:27.863Z,100061.06
2023-05-23T23:47:56.658Z,100052.56
2023-05-23T23:50:26.795Z,100056.09
2023-05-23T23:52:58.094Z,100055.25
2023-05-23T23:55:27.543Z,100051.91
2023-05-23T23:57:56.306Z,100051.09
